Wecoma — WSD7079 — position and weather

sailwx.info

Track history (hours):
 
Tides and Currents Weather Stations Pressure Air Temp Water Temp Dewpoint Dewpoint Depression Visibility Wind Speed Wind Dir Waves Ship Positions

Oceanographic research ship Wecoma (USA)

Operated by College of Oceanic and Atmospheric Sciences, Oregon State University.

Ship's website: http://www.shipops.oregonstate.edu/ops/wecoma/

Detailed information on ship capabilities available from University of Delaware's Ocean Information Center.

Owner: OREGON STATE UNIVERSITY, SOUTH BEACH, OR. More information available from US FCC via Universal Licensing System and Coast Guard Vessel Documentation Center.

Last reported at 2011-Oct-18 20:33 UTC. Time now 2019-Sep-21 15:12 UTC.
Position N 49°04' W 126°41'.
Warning: this ship's position is years out of date!

Type: Ship. MMSI: 303014000.

Date/timePositionNaut miles runAvg speedWind from/ knotsBaromVisibWave heightAir tempDewpointWater temp
2011-Oct-18 20:33N 49°04' W 126°41'19 3.8
2011-Oct-18 15:32N 48°52' W 126°19'7 7.6
2011-Oct-18 14:33N 48°46' W 126°12'2 3.8
2011-Oct-18 14:03N 48°45' W 126°10'510.2
2011-Oct-18 13:33N 48°41' W 126°05'1010.2
2011-Oct-18 12:33N 48°33' W 125°55'510.4
2011-Oct-18 12:04N 48°29' W 125°50'710.3
2011-Oct-18 11:25N 48°24' W 125°43'7 8.7
2011-Oct-18 10:33N 48°18' W 125°36'82 5.3
2011-Oct-17 19:03N 47°07' W 124°36'510.0
2011-Oct-17 18:33N 47°05' W 124°29'2 3.2
2011-Oct-17 18:01N 47°05' W 124°27'4 7.2
2011-Oct-17 17:29N 47°02' W 124°31'410.5
2011-Oct-17 17:03N 46°59' W 124°36'510.4
2011-Oct-17 16:33N 46°55' W 124°41'510.2
2011-Oct-17 16:03N 46°52' W 124°47'4 7.2
2011-Oct-17 15:30N 46°51' W 124°52'4 9.2
2011-Oct-17 15:03N 46°50' W 124°58'510.1
2011-Oct-17 14:33N 46°50' W 125°05'14 2.1
2011-Oct-17 08:02N 46°39' W 125°18'20 4.0
2011-Oct-17 03:03N 46°21' W 125°05'712.0
2011-Oct-17 02:30N 46°15' W 124°60'512.0
2011-Oct-17 02:04N 46°11' W 124°56'0 0.8
2011-Oct-17 01:33N 46°10' W 124°56'24 4.1
2011-Oct-16 19:32N 45°48' W 125°11'611.7
2011-Oct-16 19:02N 45°43' W 125°06'  
Track history (hours):
 
Tides and Currents Weather Stations Pressure Air Temp Water Temp Dewpoint Dewpoint Depression Visibility Wind Speed Wind Dir Waves Ship Positions

Oceanographic research ship Wecoma (USA)

Operated by College of Oceanic and Atmospheric Sciences, Oregon State University.

Ship's website: http://www.shipops.oregonstate.edu/ops/wecoma/

Detailed information on ship capabilities available from University of Delaware's Ocean Information Center.

Owner: OREGON STATE UNIVERSITY, SOUTH BEACH, OR. More information available from US FCC via Universal Licensing System and Coast Guard Vessel Documentation Center.

Last reported at 2011-Oct-18 20:33 UTC. Time now 2019-Sep-21 15:12 UTC.
Position N 49°04' W 126°41'.
Warning: this ship's position is years out of date!

Type: Ship. MMSI: 303014000.

Date/timePositionNaut miles runAvg speedWind from/ knotsBaromVisibWave heightAir tempDewpointWater temp
2011-Oct-18 20:33N 49°04' W 126°41'19 3.8
2011-Oct-18 15:32N 48°52' W 126°19'7 7.6
2011-Oct-18 14:33N 48°46' W 126°12'2 3.8
2011-Oct-18 14:03N 48°45' W 126°10'510.2
2011-Oct-18 13:33N 48°41' W 126°05'1010.2
2011-Oct-18 12:33N 48°33' W 125°55'510.4
2011-Oct-18 12:04N 48°29' W 125°50'710.3
2011-Oct-18 11:25N 48°24' W 125°43'7 8.7
2011-Oct-18 10:33N 48°18' W 125°36'82 5.3
2011-Oct-17 19:03N 47°07' W 124°36'510.0
2011-Oct-17 18:33N 47°05' W 124°29'2 3.2
2011-Oct-17 18:01N 47°05' W 124°27'4 7.2
2011-Oct-17 17:29N 47°02' W 124°31'410.5
2011-Oct-17 17:03N 46°59' W 124°36'510.4
2011-Oct-17 16:33N 46°55' W 124°41'510.2
2011-Oct-17 16:03N 46°52' W 124°47'4 7.2
2011-Oct-17 15:30N 46°51' W 124°52'4 9.2
2011-Oct-17 15:03N 46°50' W 124°58'510.1
2011-Oct-17 14:33N 46°50' W 125°05'14 2.1
2011-Oct-17 08:02N 46°39' W 125°18'20 4.0
2011-Oct-17 03:03N 46°21' W 125°05'712.0
2011-Oct-17 02:30N 46°15' W 124°60'512.0
2011-Oct-17 02:04N 46°11' W 124°56'0 0.8
2011-Oct-17 01:33N 46°10' W 124°56'24 4.1
2011-Oct-16 19:32N 45°48' W 125°11'611.7
2011-Oct-16 19:02N 45°43' W 125°06'  

Dump ship's entire track history